createdAt,value
2023-04-08T00:02:18.614Z,82.29
2023-04-08T00:05:04.276Z,82.45
2023-04-08T00:07:50.048Z,82.41
2023-04-08T00:10:35.580Z,82.85
2023-04-08T00:13:21.136Z,83.04
2023-04-08T00:16:08.076Z,83.10
2023-04-08T00:18:53.351Z,83.17
2023-04-08T00:21:38.798Z,83.11
2023-04-08T00:24:24.338Z,82.94
2023-04-08T00:27:09.896Z,82.81
2023-04-08T00:29:55.708Z,82.68
2023-04-08T00:32:41.078Z,82.82
2023-04-08T00:35:26.746Z,82.71
2023-04-08T00:38:12.340Z,82.53
2023-04-08T00:40:58.618Z,82.51
2023-04-08T00:43:44.415Z,82.70
2023-04-08T00:46:31.867Z,82.80
2023-04-08T00:49:17.632Z,83.18
2023-04-08T00:52:03.501Z,83.11
2023-04-08T00:54:49.051Z,83.08
2023-04-08T00:57:34.711Z,82.70
2023-04-08T01:00:21.010Z,83.16
2023-04-08T01:03:18.854Z,83.21
2023-04-08T01:06:16.172Z,83.46
2023-04-08T01:09:06.056Z,83.12
2023-04-08T01:11:53.984Z,83.21
2023-04-08T01:14:44.066Z,83.52
2023-04-08T01:17:31.380Z,82.88
2023-04-08T01:20:17.638Z,83.29
2023-04-08T01:23:25.192Z,83.13
2023-04-08T01:26:13.480Z,82.97
2023-04-08T01:29:01.790Z,83.50
2023-04-08T01:31:48.152Z,83.83
2023-04-08T01:34:35.080Z,83.91
2023-04-08T01:37:22.178Z,84.03
2023-04-08T01:40:09.150Z,84.34
2023-04-08T01:42:57.634Z,84.48
2023-04-08T01:45:48.578Z,84.69
2023-04-08T01:48:35.975Z,84.98
2023-04-08T01:51:23.378Z,84.38
2023-04-08T01:54:09.415Z,84.76
2023-04-08T01:56:57.342Z,84.66
2023-04-08T01:59:44.632Z,84.65
2023-04-08T02:02:32.793Z,84.74
2023-04-08T02:05:18.679Z,84.98
2023-04-08T02:08:04.191Z,85.29
2023-04-08T02:10:49.744Z,85.49
2023-04-08T02:13:36.010Z,84.42
2023-04-08T02:16:48.219Z,84.79
2023-04-08T02:19:46.865Z,84.65
2023-04-08T02:22:41.776Z,84.49
2023-04-08T02:25:30.606Z,84.52
2023-04-08T02:28:18.728Z,84.36
2023-04-08T02:31:08.558Z,84.13
2023-04-08T02:33:56.120Z,84.27
2023-04-08T02:36:42.959Z,84.33
2023-04-08T02:39:35.450Z,84.21
2023-04-08T02:42:21.346Z,84.29
2023-04-08T02:45:07.895Z,84.07
2023-04-08T02:47:53.423Z,84.32
2023-04-08T02:50:39.990Z,84.95
2023-04-08T02:53:26.545Z,85.48
2023-04-08T02:56:12.220Z,85.88
2023-04-08T02:58:57.841Z,86.65
2023-04-08T03:01:43.670Z,86.70
2023-04-08T03:04:29.422Z,86.50
2023-04-08T03:07:15.152Z,86.38
2023-04-08T03:10:01.289Z,86.96
2023-04-08T03:12:46.937Z,86.89
2023-04-08T03:15:46.143Z,86.67
2023-04-08T03:18:32.786Z,86.27
2023-04-08T03:21:18.969Z,85.82
2023-04-08T03:24:04.855Z,85.61
2023-04-08T03:26:51.291Z,85.31
2023-04-08T03:29:36.866Z,85.74
2023-04-08T03:32:22.815Z,85.58
2023-04-08T03:35:08.971Z,85.65
2023-04-08T03:37:55.980Z,85.55
2023-04-08T03:40:41.440Z,85.20
2023-04-08T03:43:27.692Z,85.33
2023-04-08T03:46:13.417Z,85.23
2023-04-08T03:48:58.786Z,84.94
2023-04-08T03:51:44.392Z,85.41
2023-04-08T03:54:29.964Z,84.88
2023-04-08T03:57:16.279Z,84.69
2023-04-08T04:00:02.120Z,84.62
2023-04-08T04:02:58.254Z,84.80
2023-04-08T04:05:43.883Z,84.58
2023-04-08T04:08:29.334Z,84.57
2023-04-08T04:11:14.976Z,83.92
2023-04-08T04:14:00.945Z,83.86
2023-04-08T04:16:46.803Z,84.10
2023-04-08T04:19:32.467Z,84.16
2023-04-08T04:22:18.607Z,84.63
2023-04-08T04:25:04.840Z,85.08
2023-04-08T04:27:51.430Z,84.98
2023-04-08T04:30:39.081Z,84.98
2023-04-08T04:33:25.818Z,85.46
2023-04-08T04:36:11.594Z,85.55
2023-04-08T04:38:57.427Z,85.90
2023-04-08T04:41:44.450Z,85.76
2023-04-08T04:44:30.080Z,85.67
2023-04-08T04:47:16.502Z,85.62
2023-04-08T04:50:02.649Z,85.50
2023-04-08T04:52:48.678Z,85.83
2023-04-08T04:55:34.429Z,85.84
2023-04-08T04:58:20.091Z,86.22
2023-04-08T05:01:06.208Z,86.20
2023-04-08T05:03:52.272Z,86.78
2023-04-08T05:06:37.727Z,87.23
2023-04-08T05:09:25.208Z,87.27
2023-04-08T05:12:12.610Z,87.78
2023-04-08T05:14:59.797Z,87.51
2023-04-08T05:17:45.737Z,87.45
2023-04-08T05:20:31.509Z,87.74
2023-04-08T05:23:18.406Z,87.81
2023-04-08T05:26:07.765Z,87.95
2023-04-08T05:28:53.870Z,87.90
2023-04-08T05:31:39.589Z,87.96
2023-04-08T05:34:25.564Z,87.83
2023-04-08T05:37:12.110Z,87.69
2023-04-08T05:39:58.080Z,87.69
2023-04-08T05:42:44.021Z,87.48
2023-04-08T05:45:30.325Z,87.55
2023-04-08T05:48:17.028Z,87.28
2023-04-08T05:51:03.725Z,87.04
2023-04-08T05:53:48.955Z,86.86
2023-04-08T05:56:35.199Z,86.94
2023-04-08T05:59:21.183Z,86.50
2023-04-08T06:02:07.464Z,86.46
2023-04-08T06:04:54.656Z,86.01
2023-04-08T06:07:40.899Z,86.31
2023-04-08T06:10:26.254Z,86.28
2023-04-08T06:13:11.901Z,86.00
2023-04-08T06:15:57.342Z,85.44
2023-04-08T06:18:43.899Z,85.22
2023-04-08T06:21:30.477Z,85.52
2023-04-08T06:24:17.066Z,85.53
2023-04-08T06:27:03.444Z,84.68
2023-04-08T06:29:50.466Z,84.75
2023-04-08T06:32:36.586Z,84.57
2023-04-08T06:35:24.107Z,84.88
2023-04-08T06:38:11.077Z,84.92
2023-04-08T06:40:56.800Z,84.95
2023-04-08T06:43:44.108Z,85.03
2023-04-08T06:46:31.649Z,85.09
2023-04-08T06:49:18.633Z,84.82
2023-04-08T06:52:06.848Z,84.72
2023-04-08T06:54:53.070Z,84.86
2023-04-08T06:57:39.159Z,84.89
2023-04-08T07:00:24.936Z,85.47
2023-04-08T07:03:11.996Z,85.52
2023-04-08T07:05:58.650Z,85.33
2023-04-08T07:08:45.130Z,85.68
2023-04-08T07:11:31.454Z,85.40
2023-04-08T07:14:17.608Z,85.83
2023-04-08T07:17:03.039Z,85.70
2023-04-08T07:19:49.429Z,85.04
2023-04-08T07:22:35.237Z,85.13
2023-04-08T07:25:21.136Z,84.75
2023-04-08T07:28:06.958Z,85.06
2023-04-08T07:30:53.190Z,85.35
2023-04-08T07:33:38.645Z,85.14
2023-04-08T07:36:24.242Z,85.04
2023-04-08T07:39:09.888Z,85.03
2023-04-08T07:41:55.931Z,85.34
2023-04-08T07:44:41.779Z,85.10
2023-04-08T07:47:27.506Z,84.84
2023-04-08T07:50:14.087Z,84.37
2023-04-08T07:53:00.135Z,84.22
2023-04-08T07:55:45.887Z,84.32
2023-04-08T07:58:32.707Z,84.38
2023-04-08T08:01:20.158Z,83.51
2023-04-08T08:04:06.321Z,83.81
2023-04-08T08:06:52.062Z,84.15
2023-04-08T08:09:37.446Z,84.36
2023-04-08T08:12:23.068Z,84.02
2023-04-08T08:15:09.236Z,84.03
2023-04-08T08:17:55.851Z,83.79
2023-04-08T08:20:41.716Z,84.06
2023-04-08T08:23:27.341Z,83.51
2023-04-08T08:26:13.129Z,83.50
2023-04-08T08:28:59.062Z,83.80
2023-04-08T08:31:45.088Z,83.95
2023-04-08T08:34:32.326Z,83.83
2023-04-08T08:37:17.983Z,83.99
2023-04-08T08:40:04.940Z,83.46
2023-04-08T08:42:52.788Z,83.57
2023-04-08T08:45:42.596Z,83.42
2023-04-08T08:48:29.036Z,82.82
2023-04-08T08:51:16.404Z,82.70
2023-04-08T08:54:04.537Z,83.23
2023-04-08T08:56:51.746Z,82.96
2023-04-08T08:59:40.826Z,83.48
2023-04-08T09:02:33.727Z,83.68
2023-04-08T09:05:21.321Z,83.78
2023-04-08T09:08:24.001Z,83.44
2023-04-08T09:11:16.986Z,83.43
2023-04-08T09:14:04.033Z,83.87
2023-04-08T09:16:51.724Z,84.08
2023-04-08T09:19:38.300Z,83.32
2023-04-08T09:22:24.460Z,83.25
2023-04-08T09:25:27.067Z,83.15
2023-04-08T09:28:23.490Z,83.27
2023-04-08T09:31:28.062Z,82.84
2023-04-08T09:34:17.321Z,81.83
2023-04-08T09:37:03.700Z,81.61
2023-04-08T09:39:51.227Z,80.87
2023-04-08T09:42:40.888Z,81.05
2023-04-08T09:45:28.327Z,81.46
2023-04-08T09:48:19.641Z,81.29
2023-04-08T09:51:16.721Z,81.01
2023-04-08T09:54:07.015Z,80.91
2023-04-08T09:57:04.648Z,80.94
2023-04-08T09:59:57.963Z,81.05
2023-04-08T10:03:01.039Z,80.35
2023-04-08T10:05:48.664Z,80.67
2023-04-08T10:08:35.527Z,80.67
2023-04-08T10:11:21.525Z,81.09
2023-04-08T10:14:09.848Z,80.94
2023-04-08T10:17:36.309Z,80.69
2023-04-08T10:20:34.719Z,79.90
2023-04-08T10:23:54.322Z,79.94
2023-04-08T10:26:40.013Z,79.11
2023-04-08T10:29:28.409Z,78.91
2023-04-08T10:32:40.535Z,78.57
2023-04-08T10:35:34.933Z,78.35
2023-04-08T10:38:21.603Z,78.67
2023-04-08T10:41:07.286Z,77.89
2023-04-08T10:43:53.286Z,77.41
2023-04-08T10:46:38.965Z,77.08
2023-04-08T10:49:33.646Z,77.13
2023-04-08T10:52:20.268Z,77.68
2023-04-08T10:55:06.130Z,76.81
2023-04-08T10:57:53.284Z,75.08
2023-04-08T11:00:40.271Z,74.15
2023-04-08T11:03:27.949Z,74.54
2023-04-08T11:06:14.292Z,74.15
2023-04-08T11:09:04.433Z,73.48
2023-04-08T11:11:52.586Z,72.96
2023-04-08T11:14:41.298Z,72.33
2023-04-08T11:17:27.365Z,73.42
2023-04-08T11:20:14.540Z,72.03
2023-04-08T11:23:01.301Z,72.48
2023-04-08T11:25:48.171Z,71.06
2023-04-08T11:28:35.758Z,70.98
2023-04-08T11:31:24.874Z,68.74
2023-04-08T11:34:11.419Z,68.74
2023-04-08T11:36:59.516Z,68.55
2023-04-08T11:39:46.444Z,67.25
2023-04-08T11:42:33.597Z,66.27
2023-04-08T11:45:21.560Z,65.62
2023-04-08T11:48:14.781Z,65.64
2023-04-08T11:51:10.709Z,64.45
2023-04-08T11:53:57.447Z,64.86
2023-04-08T11:56:50.922Z,64.76
2023-04-08T11:59:37.140Z,65.25
2023-04-08T12:02:23.122Z,64.74
2023-04-08T12:05:09.161Z,63.21
2023-04-08T12:07:55.458Z,63.93
2023-04-08T12:10:41.683Z,63.35
2023-04-08T12:13:27.826Z,62.49
2023-04-08T12:16:14.384Z,62.42
2023-04-08T12:19:00.370Z,62.52
2023-04-08T12:21:46.037Z,61.56
2023-04-08T12:24:31.790Z,62.11
2023-04-08T12:27:17.286Z,61.38
2023-04-08T12:30:03.657Z,60.71
2023-04-08T12:32:49.855Z,60.27
2023-04-08T12:35:36.164Z,59.68
2023-04-08T12:38:21.920Z,59.69
2023-04-08T12:41:07.953Z,60.34
2023-04-08T12:43:53.439Z,59.00
2023-04-08T12:46:39.465Z,58.30
2023-04-08T12:49:26.311Z,57.63
2023-04-08T12:52:12.044Z,57.75
2023-04-08T12:54:57.738Z,59.07
2023-04-08T12:57:43.484Z,61.10
2023-04-08T13:00:29.209Z,61.23
2023-04-08T13:03:17.603Z,61.39
2023-04-08T13:06:03.372Z,61.40
2023-04-08T13:08:49.609Z,61.59
2023-04-08T13:11:36.761Z,61.47
2023-04-08T13:14:25.673Z,62.27
2023-04-08T13:17:11.544Z,62.41
2023-04-08T13:19:57.690Z,63.64
2023-04-08T13:22:43.819Z,63.85
2023-04-08T13:25:30.026Z,64.57
2023-04-08T13:28:15.769Z,64.68
2023-04-08T13:31:01.578Z,64.79
2023-04-08T13:33:47.446Z,64.83
2023-04-08T13:36:33.002Z,64.43
2023-04-08T13:39:18.621Z,64.67
2023-04-08T13:42:04.808Z,65.24
2023-04-08T13:44:50.256Z,64.94
2023-04-08T13:47:38.106Z,65.53
2023-04-08T13:50:24.390Z,65.00
2023-04-08T13:53:10.105Z,63.99
2023-04-08T13:55:56.041Z,62.04
2023-04-08T13:58:41.842Z,62.17
2023-04-08T14:01:28.074Z,61.48
2023-04-08T14:04:14.191Z,62.38
2023-04-08T14:06:59.744Z,62.37
2023-04-08T14:09:46.307Z,62.19
2023-04-08T14:12:31.924Z,62.09
2023-04-08T14:15:18.234Z,62.85
2023-04-08T14:18:04.153Z,62.80
2023-04-08T14:20:49.618Z,62.52
2023-04-08T14:23:35.378Z,63.11
2023-04-08T14:26:21.736Z,63.00
2023-04-08T14:29:08.421Z,63.65
2023-04-08T14:31:54.285Z,63.68
2023-04-08T14:34:39.845Z,63.71
2023-04-08T14:37:25.505Z,63.85
2023-04-08T14:40:11.691Z,64.23
2023-04-08T14:42:57.576Z,64.13
2023-04-08T14:45:45.041Z,63.55
2023-04-08T14:48:30.887Z,63.26
2023-04-08T14:51:16.905Z,62.60
2023-04-08T14:54:03.151Z,63.21
2023-04-08T14:56:49.195Z,62.76
2023-04-08T14:59:34.994Z,62.90
2023-04-08T15:02:20.482Z,63.14
2023-04-08T15:05:06.854Z,63.57
2023-04-08T15:07:52.569Z,63.50
2023-04-08T15:10:38.748Z,63.31
2023-04-08T15:13:24.538Z,63.43
2023-04-08T15:16:10.434Z,63.38
2023-04-08T15:18:56.629Z,63.70
2023-04-08T15:21:42.385Z,63.36
2023-04-08T15:24:28.221Z,62.14
2023-04-08T15:27:14.748Z,62.01
2023-04-08T15:30:00.449Z,61.80
2023-04-08T15:32:46.798Z,61.75
2023-04-08T15:35:33.678Z,61.76
2023-04-08T15:38:19.198Z,61.80
2023-04-08T15:41:05.058Z,61.81
2023-04-08T15:43:52.660Z,62.61
2023-04-08T15:46:38.664Z,62.24
2023-04-08T15:49:24.255Z,63.53
2023-04-08T15:52:09.887Z,64.72
2023-04-08T15:54:55.928Z,65.83
2023-04-08T15:57:41.442Z,66.26
2023-04-08T16:00:27.436Z,66.94
2023-04-08T16:03:13.391Z,67.28
2023-04-08T16:05:59.124Z,67.56
2023-04-08T16:08:46.961Z,67.83
2023-04-08T16:11:34.270Z,68.07
2023-04-08T16:14:19.955Z,68.22
2023-04-08T16:17:06.478Z,68.55
2023-04-08T16:19:52.355Z,68.50
2023-04-08T16:22:38.796Z,68.45
2023-04-08T16:25:27.836Z,68.77
2023-04-08T16:28:14.176Z,68.67
2023-04-08T16:30:59.978Z,68.70
2023-04-08T16:33:45.666Z,68.91
2023-04-08T16:36:31.457Z,69.06
2023-04-08T16:39:17.401Z,68.34
2023-04-08T16:42:02.967Z,68.45
2023-04-08T16:44:49.265Z,68.43
2023-04-08T16:47:35.462Z,68.39
2023-04-08T16:50:21.677Z,68.34
2023-04-08T16:53:07.636Z,68.40
2023-04-08T16:55:53.401Z,68.17
2023-04-08T16:58:39.242Z,68.48
2023-04-08T17:01:26.475Z,68.55
2023-04-08T17:04:13.694Z,68.49
2023-04-08T17:07:09.058Z,68.57
2023-04-08T17:09:56.941Z,68.57
2023-04-08T17:12:45.107Z,68.92
2023-04-08T17:15:31.709Z,68.79
2023-04-08T17:18:17.586Z,68.39
2023-04-08T17:21:04.124Z,68.33
2023-04-08T17:23:52.064Z,68.70
2023-04-08T17:26:41.741Z,68.37
2023-04-08T17:29:28.231Z,68.42
2023-04-08T17:32:14.267Z,68.72
2023-04-08T17:34:59.551Z,68.04
2023-04-08T17:37:45.012Z,68.04
2023-04-08T17:40:31.111Z,67.97
2023-04-08T17:43:16.608Z,68.58
2023-04-08T17:46:02.316Z,68.76
2023-04-08T17:48:47.666Z,68.39
2023-04-08T17:51:34.404Z,69.02
2023-04-08T17:54:20.845Z,69.18
2023-04-08T17:57:07.422Z,69.35
2023-04-08T17:59:53.264Z,69.01
2023-04-08T18:02:39.009Z,69.49
2023-04-08T18:05:24.794Z,69.08
2023-04-08T18:08:10.850Z,69.06
2023-04-08T18:10:56.411Z,69.09
2023-04-08T18:13:42.620Z,69.75
2023-04-08T18:16:28.432Z,69.17
2023-04-08T18:19:15.696Z,69.33
2023-04-08T18:22:01.784Z,69.49
2023-04-08T18:24:47.964Z,69.80
2023-04-08T18:27:33.932Z,70.11
2023-04-08T18:30:20.009Z,70.88
2023-04-08T18:33:06.773Z,71.54
2023-04-08T18:35:58.240Z,71.42
2023-04-08T18:38:45.672Z,71.47
2023-04-08T18:41:32.173Z,70.91
2023-04-08T18:44:17.447Z,71.18
2023-04-08T18:47:03.164Z,70.48
2023-04-08T18:49:48.787Z,70.42
2023-04-08T18:52:35.097Z,70.75
2023-04-08T18:55:21.490Z,70.51
2023-04-08T18:58:07.492Z,71.20
2023-04-08T19:00:53.326Z,71.24
2023-04-08T19:03:39.046Z,71.08
2023-04-08T19:06:24.789Z,71.55
2023-04-08T19:09:10.509Z,71.35
2023-04-08T19:11:55.999Z,71.60
2023-04-08T19:14:42.105Z,71.54
2023-04-08T19:17:27.730Z,71.65
2023-04-08T19:20:12.993Z,72.10
2023-04-08T19:22:58.518Z,71.70
2023-04-08T19:25:44.035Z,71.45
2023-04-08T19:28:29.374Z,71.01
2023-04-08T19:31:19.780Z,71.23
2023-04-08T19:34:06.142Z,71.80
2023-04-08T19:36:52.664Z,72.08
2023-04-08T19:39:38.050Z,72.29
2023-04-08T19:42:24.241Z,72.50
2023-04-08T19:45:10.908Z,72.99
2023-04-08T19:47:56.817Z,72.26
2023-04-08T19:50:42.738Z,72.59
2023-04-08T19:53:28.331Z,72.78
2023-04-08T19:56:14.897Z,72.42
2023-04-08T19:59:03.324Z,72.80
2023-04-08T20:01:49.016Z,72.11
2023-04-08T20:04:34.928Z,71.93
2023-04-08T20:07:20.569Z,71.57
2023-04-08T20:10:07.780Z,72.21
2023-04-08T20:12:54.035Z,72.05
2023-04-08T20:15:39.772Z,71.64
2023-04-08T20:18:25.538Z,72.10
2023-04-08T20:21:13.961Z,72.01
2023-04-08T20:23:59.142Z,72.86
2023-04-08T20:26:45.160Z,73.86
2023-04-08T20:29:30.655Z,73.35
2023-04-08T20:32:16.149Z,73.02
2023-04-08T20:35:01.948Z,72.69
2023-04-08T20:37:47.562Z,72.82
2023-04-08T20:40:33.324Z,72.48
2023-04-08T20:43:18.947Z,72.59
2023-04-08T20:46:04.580Z,72.77
2023-04-08T20:48:50.734Z,72.59
2023-04-08T20:51:36.739Z,72.46
2023-04-08T20:54:22.629Z,71.83
2023-04-08T20:57:08.192Z,71.60
2023-04-08T20:59:53.626Z,71.92
2023-04-08T21:02:40.376Z,71.64
2023-04-08T21:05:26.521Z,71.25
2023-04-08T21:08:12.210Z,71.76
2023-04-08T21:10:57.765Z,72.95
2023-04-08T21:13:44.576Z,73.49
2023-04-08T21:16:31.385Z,74.35
2023-04-08T21:19:16.699Z,74.92
2023-04-08T21:22:02.040Z,75.24
2023-04-08T21:24:47.472Z,75.46
2023-04-08T21:27:32.961Z,75.44
2023-04-08T21:30:19.306Z,74.77
2023-04-08T21:33:05.226Z,74.70
2023-04-08T21:35:50.508Z,74.69
2023-04-08T21:38:36.093Z,74.20
2023-04-08T21:41:21.408Z,74.50
2023-04-08T21:44:07.256Z,73.50
2023-04-08T21:46:52.830Z,73.54
2023-04-08T21:49:38.666Z,73.27
2023-04-08T21:52:24.269Z,73.11
2023-04-08T21:55:10.423Z,73.43
2023-04-08T21:57:56.297Z,73.58
2023-04-08T22:00:42.177Z,73.08
2023-04-08T22:03:27.789Z,73.04
2023-04-08T22:06:22.033Z,73.19
2023-04-08T22:09:11.560Z,73.35
2023-04-08T22:11:57.253Z,73.42
2023-04-08T22:14:42.660Z,73.69
2023-04-08T22:17:28.246Z,74.23
2023-04-08T22:20:13.774Z,74.57
2023-04-08T22:22:59.381Z,74.55
2023-04-08T22:25:44.855Z,74.20
2023-04-08T22:28:30.544Z,74.10
2023-04-08T22:31:15.806Z,74.12
2023-04-08T22:34:02.252Z,73.93
2023-04-08T22:36:47.958Z,74.23
2023-04-08T22:39:33.442Z,74.32
2023-04-08T22:42:18.693Z,74.58
2023-04-08T22:45:05.346Z,74.74
2023-04-08T22:47:51.223Z,74.65
2023-04-08T22:50:37.100Z,74.10
2023-04-08T22:53:22.360Z,73.90
2023-04-08T22:56:08.426Z,74.04
2023-04-08T22:58:53.928Z,73.49
2023-04-08T23:01:41.526Z,73.30
2023-04-08T23:04:27.130Z,73.22
2023-04-08T23:07:12.535Z,73.25
2023-04-08T23:09:57.859Z,73.42
2023-04-08T23:12:43.696Z,73.12
2023-04-08T23:15:29.167Z,72.93
2023-04-08T23:18:14.415Z,73.04
2023-04-08T23:20:59.855Z,72.72
2023-04-08T23:23:45.241Z,73.34
2023-04-08T23:26:30.692Z,73.30
2023-04-08T23:29:16.160Z,73.37
2023-04-08T23:32:01.592Z,73.00
2023-04-08T23:34:47.429Z,72.74
2023-04-08T23:37:32.821Z,72.99
2023-04-08T23:40:18.410Z,72.74
2023-04-08T23:43:04.164Z,72.72
2023-04-08T23:45:49.435Z,72.41
2023-04-08T23:48:35.014Z,72.43
2023-04-08T23:51:20.362Z,71.71
2023-04-08T23:54:05.969Z,71.59
2023-04-08T23:56:51.400Z,71.87
2023-04-08T23:59:36.646Z,71.70
